createdAt,value
2023-12-18T01:19:50.673Z,19.79
2023-12-18T01:25:50.529Z,19.00
2023-12-18T01:27:50.638Z,18.89
2023-12-18T01:31:50.443Z,23.20
2023-12-18T01:32:50.546Z,17.50
2023-12-18T01:33:50.484Z,21.89
2023-12-18T01:34:50.427Z,21.39
2023-12-18T01:35:50.417Z,18.20
2023-12-18T01:36:50.393Z,20.70
2023-12-18T01:37:50.394Z,22.10
2023-12-18T01:38:50.378Z,20.70
2023-12-18T01:40:50.366Z,23.39
2023-12-18T01:41:50.374Z,18.60
2023-12-18T01:42:50.356Z,15.50
2023-12-18T01:43:50.332Z,21.00
2023-12-18T01:44:50.317Z,23.60
2023-12-18T01:45:50.311Z,22.39
2023-12-18T01:46:50.290Z,20.00
2023-12-18T01:47:50.397Z,18.10
2023-12-18T01:48:50.482Z,17.60
2023-12-18T01:49:50.379Z,19.39
2023-12-18T01:50:50.263Z,21.70
2023-12-18T01:51:50.260Z,17.39
2023-12-18T01:52:50.225Z,18.89
2023-12-18T01:53:50.216Z,18.50
2023-12-18T01:54:50.204Z,19.29
2023-12-18T01:55:50.202Z,18.89
2023-12-18T01:57:50.225Z,15.30
2023-12-18T01:58:50.172Z,13.69
2023-12-18T02:01:50.149Z,16.00
2023-12-18T02:03:50.220Z,14.50
2023-12-18T02:07:50.080Z,17.29
2023-12-18T02:08:50.069Z,19.60
2023-12-18T02:09:50.065Z,21.70
2023-12-18T02:11:50.029Z,25.89
2023-12-18T02:12:50.085Z,27.79
2023-12-18T02:13:50.047Z,20.60
2023-12-18T02:15:49.984Z,17.50
2023-12-18T02:16:49.985Z,25.00
2023-12-18T02:18:50.014Z,14.39
2023-12-18T02:19:49.996Z,17.60
2023-12-18T02:20:49.960Z,22.29
2023-12-18T02:21:49.931Z,19.50
2023-12-18T02:22:49.951Z,20.60
2023-12-18T02:23:49.915Z,24.50
2023-12-18T02:24:49.912Z,20.10
2023-12-18T02:25:49.910Z,19.00
2023-12-18T02:26:49.916Z,21.60
2023-12-18T02:27:49.923Z,23.50
2023-12-18T02:28:49.867Z,24.39
2023-12-18T02:29:49.867Z,25.60
2023-12-18T02:30:49.904Z,25.70
2023-12-18T02:31:49.830Z,25.39
2023-12-18T02:33:50.408Z,20.29
2023-12-18T02:34:49.987Z,31.79
2023-12-18T02:40:49.733Z,31.00
2023-12-18T02:41:49.762Z,30.00
2023-12-18T02:46:49.681Z,43.20
2023-12-18T02:47:49.689Z,33.20
2023-12-18T02:49:49.708Z,36.40
2023-12-18T02:50:49.630Z,53.29
2023-12-18T02:51:49.686Z,54.70
2023-12-18T02:52:49.615Z,38.00
2023-12-18T02:53:49.616Z,49.29
2023-12-18T02:54:49.589Z,45.09
2023-12-18T02:55:49.589Z,42.50
2023-12-18T02:56:49.560Z,50.70
2023-12-18T02:57:49.584Z,52.00
2023-12-18T02:58:49.553Z,51.29
2023-12-18T02:59:49.531Z,44.90
2023-12-18T03:00:49.610Z,45.90
2023-12-18T03:01:49.542Z,54.79
2023-12-18T03:02:49.535Z,48.50
2023-12-18T03:03:49.576Z,44.09
2023-12-18T03:04:49.507Z,49.90
2023-12-18T03:05:49.492Z,57.40
2023-12-18T03:06:49.475Z,57.09
2023-12-18T03:07:49.449Z,59.79
2023-12-18T03:08:49.442Z,50.29
2023-12-18T03:09:49.627Z,52.00
2023-12-18T03:10:49.433Z,49.79
2023-12-18T03:12:49.459Z,46.59
2023-12-18T03:13:49.385Z,41.09
2023-12-18T03:14:49.380Z,47.59
2023-12-18T03:15:49.421Z,50.29
2023-12-18T03:16:49.361Z,43.70
2023-12-18T03:17:49.513Z,33.59
2023-12-18T03:18:49.463Z,61.20
2023-12-18T03:19:49.384Z,51.09
2023-12-18T03:22:49.306Z,35.59
2023-12-18T03:23:49.288Z,37.50
2023-12-18T03:24:49.384Z,38.70
2023-12-18T03:25:49.275Z,35.70
2023-12-18T03:26:49.252Z,36.09
2023-12-18T03:31:49.210Z,30.29
2023-12-18T03:37:49.156Z,34.70
2023-12-18T07:10:21.725Z,16.50
2023-12-18T07:56:21.231Z,20.89
2023-12-18T07:58:21.224Z,21.00
2023-12-18T07:59:21.298Z,22.29
2023-12-18T08:04:21.218Z,26.79
2023-12-18T08:06:21.179Z,23.29
2023-12-18T08:07:21.128Z,22.70
2023-12-18T08:08:21.114Z,26.60
2023-12-18T08:09:21.133Z,20.50
2023-12-18T08:10:21.088Z,22.20
2023-12-18T08:11:21.096Z,26.00
2023-12-18T08:12:21.098Z,27.79
2023-12-18T08:13:21.073Z,22.60
2023-12-18T08:14:21.053Z,24.20
2023-12-18T08:15:21.097Z,25.79
2023-12-18T08:16:21.049Z,25.00
2023-12-18T08:17:21.018Z,21.10
2023-12-18T08:18:21.221Z,23.79
2023-12-18T08:19:21.173Z,22.39
2023-12-18T08:20:20.988Z,26.60
2023-12-18T08:21:21.055Z,29.60
2023-12-18T08:22:21.008Z,21.50
2023-12-18T08:23:20.966Z,25.10
2023-12-18T08:24:20.977Z,23.50
2023-12-18T08:25:20.936Z,18.29
2023-12-18T08:26:21.018Z,21.29
2023-12-18T08:27:20.956Z,18.89
2023-12-18T08:28:20.924Z,17.39
2023-12-18T08:29:20.900Z,20.00
2023-12-18T08:30:20.949Z,17.10
2023-12-18T08:31:21.064Z,16.29
2023-12-18T08:32:20.871Z,18.60
2023-12-18T08:33:20.944Z,18.20
2023-12-18T08:34:20.925Z,15.60
2023-12-18T08:35:20.838Z,18.60
2023-12-18T08:36:21.007Z,20.89
2023-12-18T08:37:20.841Z,17.70
2023-12-18T08:38:20.816Z,16.79
2023-12-18T08:39:23.115Z,17.39
2023-12-18T08:40:20.792Z,15.19
2023-12-18T08:41:20.777Z,19.10
2023-12-18T08:42:20.805Z,15.60
2023-12-18T08:43:20.769Z,17.39
2023-12-18T08:44:20.749Z,20.00
2023-12-18T08:45:20.750Z,18.50
2023-12-18T08:46:20.741Z,17.39
2023-12-18T08:47:20.712Z,17.70
2023-12-18T08:48:20.804Z,17.50
2023-12-18T08:49:20.954Z,18.50
2023-12-18T08:50:20.686Z,19.20
2023-12-18T08:51:20.697Z,18.00
2023-12-18T08:52:20.672Z,21.20
2023-12-18T08:53:20.705Z,22.79
2023-12-18T08:54:20.682Z,21.00
2023-12-18T08:55:20.630Z,19.20
2023-12-18T08:56:20.631Z,24.39
2023-12-18T08:57:20.649Z,19.20
2023-12-18T08:58:20.610Z,18.00
2023-12-18T08:59:21.776Z,19.50
2023-12-18T09:00:20.611Z,17.50
2023-12-18T09:01:20.843Z,18.60
2023-12-18T09:02:20.578Z,22.60
2023-12-18T09:03:20.625Z,17.89
2023-12-18T09:04:20.618Z,16.29
2023-12-18T09:05:20.535Z,20.10
2023-12-18T09:06:20.884Z,19.60
2023-12-18T09:07:20.568Z,18.50
2023-12-18T09:08:20.513Z,17.89
2023-12-18T09:09:20.540Z,16.20
2023-12-18T09:10:20.483Z,17.70
2023-12-18T09:11:22.614Z,20.10
2023-12-18T09:12:20.502Z,16.60
2023-12-18T09:13:20.455Z,15.10
2023-12-18T09:14:20.440Z,15.10
2023-12-18T09:15:20.461Z,18.39
2023-12-18T09:16:20.421Z,19.29
2023-12-18T09:17:20.410Z,16.39
2023-12-18T09:18:20.501Z,16.60
2023-12-18T09:19:20.503Z,15.39
2023-12-18T09:20:20.381Z,16.10
2023-12-18T09:21:20.420Z,15.89
2023-12-18T09:22:20.457Z,14.50
2023-12-18T09:23:20.360Z,16.20
2023-12-18T09:24:20.388Z,16.89
2023-12-18T09:25:20.353Z,14.60
2023-12-18T09:26:20.319Z,14.89
2023-12-18T09:27:20.346Z,17.00
2023-12-18T09:28:20.299Z,14.10
2023-12-18T09:29:20.328Z,12.30
2023-12-18T09:30:20.335Z,15.10
2023-12-18T09:31:20.392Z,15.89
2023-12-18T09:32:20.370Z,13.39
2023-12-18T09:33:20.400Z,12.50
2023-12-18T09:34:20.465Z,13.89
2023-12-18T09:35:20.329Z,13.39
2023-12-18T09:36:20.302Z,13.19
2023-12-18T09:37:20.208Z,13.50
2023-12-18T09:38:20.196Z,16.29
2023-12-18T09:39:20.237Z,12.10
2023-12-18T09:40:20.179Z,11.80
2023-12-18T09:41:20.196Z,13.50
2023-12-18T09:42:21.910Z,14.30
2023-12-18T09:43:20.152Z,12.19
2023-12-18T09:44:20.134Z,10.69
2023-12-18T09:45:20.168Z,10.10
2023-12-18T09:46:20.114Z,11.00
2023-12-18T09:47:20.120Z,9.80
2023-12-18T09:48:20.356Z,9.30
2023-12-18T09:49:20.134Z,10.00
2023-12-18T09:50:20.079Z,9.89
2023-12-18T09:51:20.108Z,8.60
2023-12-18T09:52:20.077Z,8.60
2023-12-18T09:53:20.043Z,9.00
2023-12-18T09:54:20.058Z,8.60
2023-12-18T09:55:20.027Z,8.50
2023-12-18T09:56:20.011Z,9.30
2023-12-18T09:57:20.176Z,7.00
2023-12-18T09:58:20.000Z,9.10
2023-12-18T09:59:19.981Z,9.80
2023-12-18T10:00:26.046Z,8.69
2023-12-18T10:01:20.111Z,9.10
2023-12-18T10:02:19.955Z,7.90
2023-12-18T10:03:20.070Z,8.10
2023-12-18T10:04:19.999Z,9.30
2023-12-18T10:05:19.956Z,10.69
2023-12-18T10:06:19.985Z,8.39
2023-12-18T10:07:19.896Z,8.00
2023-12-18T10:08:19.915Z,8.60
2023-12-18T10:09:19.897Z,7.90
2023-12-18T10:10:19.880Z,7.90
2023-12-18T10:11:19.862Z,7.69
2023-12-18T10:12:19.881Z,8.30
2023-12-18T10:13:19.861Z,6.90
2023-12-18T10:14:19.822Z,7.90
2023-12-18T10:15:19.812Z,8.30
2023-12-18T10:16:19.829Z,8.69
2023-12-18T10:17:19.791Z,6.40
2023-12-18T10:18:19.886Z,7.30
2023-12-18T10:19:19.856Z,7.59
2023-12-18T10:20:19.764Z,7.19
2023-12-18T10:21:19.785Z,8.50
2023-12-18T10:22:19.743Z,7.40
2023-12-18T10:23:19.744Z,7.30
2023-12-18T10:24:19.745Z,8.10
2023-12-18T10:25:19.714Z,7.40
2023-12-18T10:26:19.709Z,9.19
2023-12-18T10:27:19.770Z,10.30
2023-12-18T10:28:19.683Z,9.10
2023-12-18T10:29:19.697Z,7.00
2023-12-18T10:30:19.750Z,7.90
2023-12-18T10:31:19.786Z,8.60
2023-12-18T10:32:19.633Z,8.00
2023-12-18T10:33:19.749Z,7.40
2023-12-18T10:34:19.826Z,7.50
2023-12-18T10:35:19.611Z,9.39
2023-12-18T10:36:19.702Z,7.09
2023-12-18T10:37:19.604Z,7.00
2023-12-18T10:38:19.577Z,8.69
2023-12-18T10:39:19.595Z,7.09
2023-12-18T10:40:19.559Z,8.30
2023-12-18T10:41:19.539Z,8.10
2023-12-18T10:42:19.583Z,7.40
2023-12-18T10:43:19.524Z,7.90
2023-12-18T10:44:19.517Z,8.69
2023-12-18T10:45:19.545Z,8.10
2023-12-18T10:46:19.507Z,8.39
2023-12-18T10:47:19.479Z,7.50
2023-12-18T10:48:19.526Z,8.80
2023-12-18T10:49:19.671Z,7.30
2023-12-18T10:50:19.450Z,8.60
2023-12-18T10:51:19.455Z,8.60
2023-12-18T10:52:19.425Z,9.10
2023-12-18T10:53:19.418Z,10.19
2023-12-18T10:54:19.443Z,8.80
2023-12-18T10:55:19.393Z,8.60
2023-12-18T10:56:19.380Z,8.39
2023-12-18T10:57:19.467Z,9.69
2023-12-18T10:58:19.367Z,7.69
2023-12-18T10:59:19.348Z,7.80
2023-12-18T11:00:19.449Z,10.30
2023-12-18T11:01:19.431Z,8.69
2023-12-18T11:02:19.318Z,8.60
2023-12-18T11:03:19.369Z,8.50
2023-12-18T11:04:19.342Z,8.50
2023-12-18T11:05:19.334Z,8.30
2023-12-18T11:06:20.275Z,9.00
2023-12-18T11:07:19.272Z,8.69
2023-12-18T11:08:19.254Z,8.60
2023-12-18T11:09:19.257Z,10.10
2023-12-18T11:10:19.247Z,10.10
2023-12-18T11:11:19.236Z,9.19
2023-12-18T11:12:19.270Z,9.80
2023-12-18T11:13:19.206Z,9.60
2023-12-18T11:14:19.194Z,10.30
2023-12-18T11:15:19.207Z,10.30
2023-12-18T11:16:19.167Z,10.10
2023-12-18T11:17:19.182Z,9.60
2023-12-18T11:18:19.467Z,11.19
2023-12-18T11:19:26.026Z,10.89
2023-12-18T11:20:20.374Z,10.00
2023-12-18T11:21:19.156Z,12.19
2023-12-18T11:22:19.107Z,9.69
2023-12-18T11:23:19.110Z,9.30
2023-12-18T11:24:19.446Z,11.89
2023-12-18T11:25:25.089Z,11.89
2023-12-18T11:26:19.066Z,10.19
2023-12-18T11:27:19.162Z,9.30
2023-12-18T11:28:19.044Z,11.60
2023-12-18T11:29:19.037Z,10.69
2023-12-18T11:30:19.172Z,10.69
2023-12-18T11:31:19.171Z,11.50
2023-12-18T11:32:19.005Z,11.60
2023-12-18T11:33:19.247Z,12.60
2023-12-18T11:34:19.102Z,12.00
2023-12-18T11:35:19.100Z,12.89
2023-12-18T11:36:19.011Z,16.70
2023-12-18T11:37:18.959Z,13.30
2023-12-18T11:38:18.952Z,12.10
2023-12-18T11:39:19.005Z,14.69
2023-12-18T11:40:18.919Z,11.50
2023-12-18T11:41:18.917Z,15.10
2023-12-18T11:42:18.960Z,16.10
2023-12-18T11:43:18.890Z,17.00
2023-12-18T11:44:18.897Z,17.00
2023-12-18T11:45:19.001Z,16.39
2023-12-18T11:46:19.209Z,13.30
2023-12-18T11:47:18.864Z,14.30
2023-12-18T11:48:19.561Z,16.00
2023-12-18T11:49:18.948Z,14.69
2023-12-18T11:50:18.848Z,14.89
2023-12-18T11:51:18.869Z,15.39
2023-12-18T11:52:18.797Z,17.70
2023-12-18T11:53:18.819Z,15.60
2023-12-18T11:54:18.826Z,16.60
2023-12-18T11:55:18.776Z,15.10
2023-12-18T11:56:24.765Z,15.19
2023-12-18T11:57:18.775Z,18.39
2023-12-18T11:58:18.734Z,15.80
2023-12-18T11:59:18.732Z,13.80
2023-12-18T12:00:18.758Z,15.80
2023-12-18T12:01:18.946Z,15.89
2023-12-18T12:02:18.691Z,16.20
2023-12-18T12:03:18.701Z,17.89
2023-12-18T12:04:18.770Z,16.70
2023-12-18T12:05:18.712Z,19.29
2023-12-18T12:06:18.651Z,19.39
2023-12-18T12:07:18.654Z,17.60
2023-12-18T12:08:18.646Z,16.29
2023-12-18T12:09:18.689Z,17.39
2023-12-18T12:10:18.612Z,17.89
2023-12-18T12:11:18.599Z,16.10
2023-12-18T12:12:18.684Z,17.50
2023-12-18T12:13:18.577Z,17.89
2023-12-18T12:14:18.568Z,17.10
2023-12-18T12:15:18.596Z,19.50
2023-12-18T12:16:18.554Z,17.70
2023-12-18T12:17:18.535Z,17.70
2023-12-18T12:18:18.634Z,18.20
2023-12-18T12:19:18.638Z,14.89
2023-12-18T12:20:18.515Z,15.00
2023-12-18T12:21:18.631Z,16.89
2023-12-18T12:22:18.569Z,18.10
2023-12-18T12:23:18.478Z,18.00
2023-12-18T12:24:18.484Z,16.50
2023-12-18T12:25:18.573Z,17.70
2023-12-18T12:26:18.443Z,15.30
2023-12-18T12:27:18.473Z,17.60
2023-12-18T12:28:18.429Z,18.20
2023-12-18T12:29:18.442Z,17.70
2023-12-18T12:30:18.546Z,22.39
2023-12-18T12:31:18.505Z,18.29
2023-12-18T12:32:18.578Z,16.00
2023-12-18T12:33:18.574Z,16.89
2023-12-18T12:34:18.474Z,17.10
2023-12-18T12:35:18.436Z,18.39
2023-12-18T12:36:18.394Z,18.70
2023-12-18T12:37:18.355Z,18.00
2023-12-18T12:38:18.324Z,18.89
2023-12-18T12:39:24.357Z,16.00
2023-12-18T12:40:18.509Z,21.50
2023-12-18T12:41:18.291Z,20.79
2023-12-18T12:42:18.314Z,17.50
2023-12-18T12:43:18.275Z,17.60
2023-12-18T12:44:18.263Z,36.00
2023-12-18T12:45:18.328Z,28.10
2023-12-18T12:46:22.969Z,23.00
2023-12-18T12:47:18.228Z,19.00
2023-12-18T12:48:18.404Z,23.20
2023-12-18T12:49:18.358Z,18.79
2023-12-18T12:50:18.199Z,19.89
2023-12-18T12:51:18.254Z,18.20
2023-12-18T12:52:18.183Z,17.79
2023-12-18T12:53:18.191Z,19.89
2023-12-18T12:54:18.194Z,18.50
2023-12-18T12:55:18.178Z,18.60
2023-12-18T12:56:18.152Z,17.89
2023-12-18T12:57:18.167Z,19.29
2023-12-18T12:58:18.119Z,16.10
2023-12-18T12:59:18.107Z,16.10
2023-12-18T13:00:18.151Z,18.29
2023-12-18T13:01:18.303Z,20.00
2023-12-18T13:02:18.078Z,17.39
2023-12-18T13:03:18.121Z,20.60
2023-12-18T13:04:18.253Z,17.29
2023-12-18T13:05:18.127Z,15.10
2023-12-18T13:06:18.056Z,18.89
2023-12-18T13:07:18.021Z,16.20
2023-12-18T13:08:18.038Z,18.60
2023-12-18T13:09:18.045Z,17.60
2023-12-18T13:10:18.000Z,19.10
2023-12-18T13:11:17.980Z,18.29
2023-12-18T13:12:17.998Z,18.79
2023-12-18T13:13:17.957Z,16.29
2023-12-18T13:14:17.952Z,18.60
2023-12-18T13:15:18.056Z,19.70
2023-12-18T13:16:17.943Z,18.60
2023-12-18T13:17:17.937Z,20.10
2023-12-18T13:18:18.027Z,21.39
2023-12-18T13:19:18.216Z,20.79
2023-12-18T13:20:26.459Z,21.29
2023-12-18T13:21:18.946Z,19.70
2023-12-18T13:22:17.873Z,20.10
2023-12-18T13:23:17.858Z,22.70
2023-12-18T13:24:17.928Z,23.50
2023-12-18T13:25:17.859Z,21.89
2023-12-18T13:26:17.827Z,23.00
2023-12-18T13:27:17.847Z,21.50
2023-12-18T13:28:17.806Z,18.60
2023-12-18T13:29:17.815Z,20.00
2023-12-18T13:30:18.055Z,21.00
2023-12-18T13:31:17.827Z,20.00
2023-12-18T13:32:17.787Z,20.60
2023-12-18T13:33:17.899Z,23.00
2023-12-18T13:34:17.837Z,23.20
2023-12-18T13:35:17.731Z,22.79
2023-12-18T13:36:17.746Z,22.39
2023-12-18T13:37:17.716Z,22.00
2023-12-18T13:38:17.700Z,21.00
2023-12-18T13:39:17.719Z,21.39
2023-12-18T13:40:17.681Z,21.29
2023-12-18T13:41:17.696Z,22.50
2023-12-18T13:42:23.738Z,23.10
2023-12-18T13:43:17.692Z,18.29
2023-12-18T13:44:17.670Z,20.20
2023-12-18T13:45:17.647Z,21.20
2023-12-18T13:46:17.621Z,19.70
2023-12-18T13:47:17.607Z,21.20
2023-12-18T13:48:17.746Z,21.39
2023-12-18T13:49:17.720Z,23.60
2023-12-18T13:50:17.578Z,21.79
2023-12-18T13:51:17.628Z,20.60
2023-12-18T13:52:17.568Z,21.79
2023-12-18T13:53:17.555Z,23.00
2023-12-18T13:54:18.998Z,22.70
2023-12-18T13:55:17.540Z,22.00
2023-12-18T13:56:17.523Z,22.89
2023-12-18T13:57:17.654Z,23.10
2023-12-18T13:58:17.502Z,19.70
2023-12-18T13:59:17.498Z,22.39
2023-12-18T14:00:18.797Z,21.60
2023-12-18T14:01:17.577Z,21.29
2023-12-18T14:02:17.452Z,24.10
2023-12-18T14:03:17.497Z,24.70
2023-12-18T14:04:17.491Z,21.39
2023-12-18T14:05:17.449Z,23.39
2023-12-18T14:06:18.937Z,24.70
2023-12-18T14:07:17.399Z,23.29
2023-12-18T14:08:17.388Z,23.39
2023-12-18T14:09:17.449Z,24.60
2023-12-18T14:10:17.371Z,26.70
2023-12-18T14:11:17.364Z,23.00
2023-12-18T14:12:17.452Z,22.70
2023-12-18T14:13:17.496Z,20.89
2023-12-18T14:14:17.338Z,24.60
2023-12-18T14:15:17.342Z,24.00
2023-12-18T14:16:17.307Z,21.70
2023-12-18T14:17:17.309Z,23.10
2023-12-18T14:18:19.646Z,25.50
2023-12-18T14:19:17.322Z,24.10
2023-12-18T14:20:17.315Z,20.60
2023-12-18T14:21:17.326Z,24.70
2023-12-18T14:22:17.279Z,22.39
2023-12-18T14:23:17.234Z,21.89
2023-12-18T14:24:19.284Z,23.20
2023-12-18T14:25:17.236Z,23.50
2023-12-18T14:26:17.208Z,23.89
2023-12-18T14:27:17.218Z,25.39
2023-12-18T14:28:17.267Z,25.70
2023-12-18T14:29:17.200Z,24.29
2023-12-18T14:30:20.263Z,23.60
2023-12-18T14:31:17.218Z,26.39
2023-12-18T14:32:17.159Z,24.89
2023-12-18T14:33:17.339Z,24.70
2023-12-18T14:34:17.229Z,22.29
2023-12-18T14:35:17.182Z,25.29
2023-12-18T14:36:17.159Z,23.60
2023-12-18T14:37:17.091Z,29.79
2023-12-18T14:38:17.095Z,20.39
2023-12-18T14:39:17.098Z,25.29
2023-12-18T14:40:17.076Z,27.50
2023-12-18T14:41:17.054Z,25.10
2023-12-18T14:42:17.058Z,20.10
2023-12-18T14:43:17.035Z,25.79
2023-12-18T14:44:17.026Z,25.29
2023-12-18T14:45:17.068Z,24.60
2023-12-18T14:46:17.545Z,23.79
2023-12-18T14:47:16.989Z,23.60
2023-12-18T14:48:22.839Z,24.00
2023-12-18T14:49:18.104Z,28.50
2023-12-18T14:50:17.278Z,23.89
2023-12-18T14:51:17.090Z,22.50
2023-12-18T14:52:16.948Z,28.10
2023-12-18T14:53:16.932Z,29.39
2023-12-18T14:54:16.938Z,28.20
2023-12-18T14:55:16.912Z,31.39
2023-12-18T14:56:23.843Z,27.79
2023-12-18T14:57:17.941Z,32.79
2023-12-18T14:58:16.879Z,28.89
2023-12-18T14:59:16.876Z,26.60
2023-12-18T15:00:16.897Z,23.70
2023-12-18T15:01:16.992Z,30.60
2023-12-18T15:02:16.846Z,28.20
2023-12-18T15:03:16.931Z,31.00
2023-12-18T15:04:22.913Z,33.40
2023-12-18T15:05:17.904Z,31.70
2023-12-18T15:06:16.852Z,32.90
2023-12-18T15:07:16.900Z,32.40
2023-12-18T15:08:16.839Z,32.40
2023-12-18T15:09:16.826Z,31.00
2023-12-18T15:10:16.755Z,37.50
2023-12-18T15:11:16.744Z,32.00
2023-12-18T15:12:16.840Z,28.60
2023-12-18T15:13:16.731Z,27.29
2023-12-18T15:14:16.714Z,30.20
2023-12-18T15:15:16.743Z,31.89
2023-12-18T15:16:16.695Z,29.50
2023-12-18T15:17:16.712Z,36.50
2023-12-18T15:18:16.934Z,30.39
2023-12-18T15:19:16.845Z,30.89
2023-12-18T15:20:16.809Z,32.90
2023-12-18T15:21:16.710Z,32.40
2023-12-18T15:22:16.639Z,40.09
2023-12-18T15:23:16.624Z,39.20
2023-12-18T15:24:16.710Z,32.59
2023-12-18T15:25:16.605Z,32.50
2023-12-18T15:26:16.615Z,38.00
2023-12-18T15:27:16.629Z,31.60
2023-12-18T15:28:16.587Z,33.00
2023-12-18T15:29:16.584Z,30.60
2023-12-18T15:30:16.724Z,38.70
2023-12-18T15:31:16.798Z,48.29
2023-12-18T15:32:16.541Z,50.40
2023-12-18T15:33:18.066Z,39.00
2023-12-18T15:34:16.659Z,33.50
2023-12-18T15:35:16.682Z,39.29
2023-12-18T15:36:18.442Z,32.79
2023-12-18T15:37:16.542Z,43.90
2023-12-18T15:38:16.475Z,35.79
2023-12-18T15:39:16.508Z,37.90
2023-12-18T15:40:16.520Z,42.00
2023-12-18T15:41:16.442Z,40.00
2023-12-18T15:42:16.495Z,60.90
2023-12-18T15:43:16.455Z,46.29
2023-12-18T15:44:16.409Z,52.79
2023-12-18T15:45:16.440Z,50.59
2023-12-18T15:46:16.399Z,49.70
2023-12-18T15:47:16.380Z,43.90
2023-12-18T15:48:16.959Z,55.79
2023-12-18T15:49:16.559Z,53.70
2023-12-18T15:50:16.551Z,44.40
2023-12-18T15:51:16.371Z,52.79
2023-12-18T15:52:16.334Z,51.09
2023-12-18T15:53:16.330Z,48.00
2023-12-18T15:54:16.323Z,43.00
2023-12-18T15:55:16.300Z,54.90
2023-12-18T15:56:16.367Z,65.90
2023-12-18T15:57:16.302Z,62.59
2023-12-18T15:58:16.263Z,75.00
2023-12-18T15:59:16.314Z,64.30
2023-12-18T16:00:16.319Z,81.90
2023-12-18T16:01:16.383Z,66.30
2023-12-18T16:02:16.233Z,95.00
2023-12-18T16:03:22.318Z,114.00
2023-12-18T16:04:16.315Z,81.69
2023-12-18T16:05:16.257Z,71.00
2023-12-18T16:06:16.231Z,67.40
2023-12-18T16:07:22.190Z,85.09
2023-12-18T16:08:16.168Z,82.40
2023-12-18T16:09:16.221Z,100.80
2023-12-18T16:10:16.150Z,67.59
2023-12-18T16:11:16.138Z,71.90
2023-12-18T16:12:16.166Z,69.69
2023-12-18T16:13:16.179Z,64.40
2023-12-18T16:14:16.107Z,64.50
2023-12-18T16:15:16.113Z,67.69
2023-12-18T16:16:16.139Z,62.59
2023-12-18T16:17:16.144Z,50.09
2023-12-18T16:18:16.300Z,70.40
2023-12-18T16:19:16.186Z,73.50
2023-12-18T16:21:16.142Z,65.00
2023-12-18T16:22:16.106Z,72.40
2023-12-18T16:31:16.105Z,113.59
2023-12-18T16:33:16.161Z,99.00
2023-12-18T16:34:16.088Z,117.50
2023-12-18T16:35:16.073Z,137.50
2023-12-18T16:37:15.971Z,111.50
2023-12-18T16:39:15.952Z,120.80
2023-12-18T16:40:15.907Z,109.69
2023-12-18T16:43:15.874Z,88.80
2023-12-18T16:45:15.865Z,66.30
2023-12-18T16:46:15.849Z,66.50
2023-12-18T16:47:15.823Z,77.19
2023-12-18T16:48:16.023Z,67.09
2023-12-18T16:49:15.957Z,101.90
2023-12-18T16:50:15.800Z,56.09
2023-12-18T16:51:15.807Z,79.80
2023-12-18T17:08:15.616Z,95.50
2023-12-18T17:12:15.593Z,80.80
2023-12-18T17:14:15.562Z,74.69
2023-12-18T17:15:15.650Z,65.00
2023-12-18T17:16:15.537Z,74.80
2023-12-18T17:19:15.582Z,67.40
2023-12-18T17:25:15.532Z,144.30
2023-12-18T17:27:15.503Z,76.19
2023-12-18T17:28:15.410Z,62.09
2023-12-18T17:31:15.510Z,76.50
2023-12-18T18:49:14.630Z,73.59
2023-12-18T18:51:14.615Z,87.40
2023-12-18T18:53:14.557Z,68.40
2023-12-18T18:55:14.539Z,73.69
2023-12-18T18:58:14.617Z,87.59
2023-12-18T19:01:14.580Z,89.09
2023-12-18T19:02:15.776Z,77.00
2023-12-18T19:04:14.606Z,55.09
2023-12-18T19:05:14.671Z,68.19
2023-12-18T19:06:14.460Z,64.50
2023-12-18T19:07:14.625Z,56.40
2023-12-18T19:08:14.408Z,48.79
2023-12-18T19:09:14.401Z,51.50
2023-12-18T19:10:14.386Z,51.59
2023-12-18T19:11:14.376Z,45.09
2023-12-18T19:12:14.393Z,57.70
2023-12-18T19:13:14.357Z,63.09
2023-12-18T19:14:14.553Z,63.20
2023-12-18T19:15:14.392Z,66.69
2023-12-18T19:16:14.333Z,73.69
2023-12-18T19:17:14.337Z,68.40
2023-12-18T19:18:14.629Z,80.90
2023-12-18T19:19:14.391Z,83.69
2023-12-18T19:20:14.304Z,72.09
2023-12-18T19:21:14.285Z,76.80
2023-12-18T19:22:20.282Z,64.80
2023-12-18T19:23:14.249Z,77.19
2023-12-18T19:24:14.263Z,81.40
2023-12-18T19:25:14.253Z,72.80
2023-12-18T19:26:14.227Z,87.59
2023-12-18T19:27:14.230Z,108.00
2023-12-18T19:28:14.225Z,102.09
2023-12-18T19:29:14.199Z,95.30
2023-12-18T19:30:14.325Z,90.40
2023-12-18T19:31:14.264Z,106.59
2023-12-18T19:32:14.161Z,103.09
2023-12-18T19:33:14.269Z,106.90
2023-12-18T19:34:14.221Z,107.50
2023-12-18T19:35:14.137Z,96.90
2023-12-18T19:36:14.182Z,90.90
2023-12-18T19:37:14.122Z,83.80
2023-12-18T19:38:14.102Z,103.40
2023-12-18T19:39:14.089Z,80.40
2023-12-18T19:40:14.081Z,89.59
2023-12-18T19:41:14.074Z,98.19
2023-12-18T19:42:14.169Z,114.19
2023-12-18T19:43:14.046Z,99.00
2023-12-18T19:44:14.042Z,96.00
2023-12-18T19:45:14.031Z,107.30
2023-12-18T19:46:14.025Z,101.40
2023-12-18T19:47:14.013Z,96.90
2023-12-18T19:48:14.056Z,124.90
2023-12-18T19:49:21.590Z,101.19
2023-12-18T19:50:14.269Z,101.80
2023-12-18T19:51:13.977Z,108.59
2023-12-18T19:52:13.960Z,152.30
2023-12-18T19:53:19.959Z,197.80
2023-12-18T19:54:13.941Z,144.89
2023-12-18T19:55:13.941Z,127.90
2023-12-18T19:56:13.918Z,107.90
2023-12-18T19:57:13.921Z,114.69
2023-12-18T19:58:13.897Z,133.19
2023-12-18T19:59:13.890Z,122.80
2023-12-18T20:00:13.918Z,120.09
2023-12-18T20:01:14.019Z,99.50
2023-12-18T20:02:13.870Z,81.80
2023-12-18T20:03:13.879Z,106.80
2023-12-18T20:04:13.903Z,100.59
2023-12-18T20:05:13.859Z,104.09
2023-12-18T20:06:13.875Z,101.69
2023-12-18T20:07:13.925Z,71.69
2023-12-18T20:08:13.807Z,62.40
2023-12-18T20:09:13.787Z,102.09
2023-12-18T20:10:13.786Z,77.50
2023-12-18T20:11:13.766Z,84.30
2023-12-18T20:12:13.773Z,79.59
2023-12-18T20:13:13.784Z,72.69
2023-12-18T20:14:13.745Z,72.69
2023-12-18T20:15:13.721Z,81.50
2023-12-18T20:16:13.713Z,92.80
2023-12-18T20:17:13.707Z,78.30
2023-12-18T20:18:13.772Z,85.69
2023-12-18T20:19:13.767Z,85.90
2023-12-18T20:20:13.699Z,100.80
2023-12-18T20:21:13.693Z,104.80
2023-12-18T20:22:13.695Z,102.09
2023-12-18T20:23:13.643Z,91.30
2023-12-18T20:24:13.629Z,101.59
2023-12-18T20:25:13.621Z,101.30
2023-12-18T20:26:13.618Z,101.69
2023-12-18T20:27:13.605Z,95.80
2023-12-18T20:28:13.597Z,89.19
2023-12-18T20:29:13.590Z,101.40
2023-12-18T20:30:13.571Z,89.40
2023-12-18T20:31:13.656Z,68.69
2023-12-18T20:32:13.558Z,86.59
2023-12-18T20:33:13.607Z,87.30
2023-12-18T20:34:13.577Z,83.19
2023-12-18T20:35:13.531Z,97.09
2023-12-18T20:36:13.523Z,81.69
2023-12-18T20:37:13.524Z,72.50
2023-12-18T20:38:13.502Z,82.90
2023-12-18T20:39:13.495Z,74.40
2023-12-18T20:40:13.473Z,72.59
2023-12-18T20:41:13.464Z,75.30
2023-12-18T20:42:13.459Z,71.40
2023-12-18T20:43:13.448Z,75.50
2023-12-18T20:44:13.424Z,61.29
2023-12-18T20:45:13.433Z,63.40
2023-12-18T20:46:13.406Z,72.80
2023-12-18T20:47:13.398Z,56.79
2023-12-18T20:48:13.542Z,40.09
2023-12-18T20:49:13.706Z,75.09
2023-12-18T20:50:13.372Z,62.20
2023-12-18T20:51:13.368Z,51.29
2023-12-18T20:52:13.347Z,39.20
2023-12-18T20:53:13.382Z,26.50
2023-12-18T20:54:13.333Z,33.00
2023-12-18T20:55:13.341Z,44.70
2023-12-18T20:56:15.169Z,39.79
2023-12-18T20:57:13.317Z,46.20
2023-12-18T20:58:13.303Z,50.00
2023-12-18T20:59:13.278Z,38.50
2023-12-18T21:00:23.456Z,54.20
2023-12-18T21:01:14.386Z,52.50
2023-12-18T21:02:13.247Z,49.29
2023-12-18T21:03:13.444Z,44.20
2023-12-18T21:04:13.292Z,39.20
2023-12-18T21:05:13.288Z,38.00
2023-12-18T21:06:13.212Z,46.79
2023-12-18T21:07:13.196Z,40.50
2023-12-18T21:08:19.225Z,39.29
2023-12-18T21:09:13.184Z,36.20
2023-12-18T21:10:13.222Z,26.89
2023-12-18T21:11:13.155Z,35.09
2023-12-18T21:12:13.166Z,42.00
2023-12-18T21:13:13.155Z,39.09
2023-12-18T21:14:22.976Z,26.70
2023-12-18T21:15:14.143Z,29.60
2023-12-18T21:16:13.103Z,30.89
2023-12-18T21:17:13.100Z,31.50
2023-12-18T21:18:13.097Z,25.00
2023-12-18T21:19:13.102Z,22.89
2023-12-18T21:20:13.068Z,29.00
2023-12-18T21:21:13.058Z,30.20
2023-12-18T21:22:13.175Z,23.60
2023-12-18T21:23:13.095Z,29.50
2023-12-18T21:24:13.048Z,33.20
2023-12-18T21:25:13.023Z,35.20
2023-12-18T21:26:13.042Z,31.50
2023-12-18T21:27:12.996Z,34.29
2023-12-18T21:28:12.992Z,28.29